sensor_id;sensor_type;location;lat;lon;timestamp;pressure;altitude;pressure_sealevel;temperature;humidity
75409;BME280;63979;55.644;37.734;2024-03-06T00:03:20;101342.13;;;-2.35;53.55
75409;BME280;63979;55.644;37.734;2024-03-06T00:08:20;101355.97;;;-2.43;54.22
75409;BME280;63979;55.644;37.734;2024-03-06T00:13:21;101348.88;;;-2.58;53.99
75409;BME280;63979;55.644;37.734;2024-03-06T00:18:22;101360.19;;;-2.59;54.25
75409;BME280;63979;55.644;37.734;2024-03-06T00:23:29;101362.66;;;-2.74;54.50
75409;BME280;63979;55.644;37.734;2024-03-06T00:28:31;101363.47;;;-2.78;54.45
75409;BME280;63979;55.644;37.734;2024-03-06T00:33:32;101365.16;;;-2.84;54.71
75409;BME280;63979;55.644;37.734;2024-03-06T00:38:32;101364.25;;;-2.87;54.97
75409;BME280;63979;55.644;37.734;2024-03-06T00:43:33;101361.44;;;-3.07;54.33
75409;BME280;63979;55.644;37.734;2024-03-06T00:48:34;101339.31;;;-3.36;54.69
75409;BME280;63979;55.644;37.734;2024-03-06T00:53:35;101372.53;;;-3.22;54.21
75409;BME280;63979;55.644;37.734;2024-03-06T00:58:36;101365.59;;;-3.21;54.91
75409;BME280;63979;55.644;37.734;2024-03-06T01:03:40;101366.47;;;-3.19;55.17
75409;BME280;63979;55.644;37.734;2024-03-06T01:08:41;101356.75;;;-3.32;54.42
75409;BME280;63979;55.644;37.734;2024-03-06T01:13:42;101368.91;;;-3.34;54.95
75409;BME280;63979;55.644;37.734;2024-03-06T01:18:43;101367.06;;;-3.44;53.89
75409;BME280;63979;55.644;37.734;2024-03-06T01:23:44;101368.78;;;-3.47;54.42
75409;BME280;63979;55.644;37.734;2024-03-06T01:28:45;101369.59;;;-3.48;53.98
75409;BME280;63979;55.644;37.734;2024-03-06T01:33:46;101362.44;;;-3.64;53.94
75409;BME280;63979;55.644;37.734;2024-03-06T01:38:47;101344.00;;;-3.78;54.47
75409;BME280;63979;55.644;37.734;2024-03-06T01:43:48;101367.59;;;-3.67;54.71
75409;BME280;63979;55.644;37.734;2024-03-06T01:48:49;101373.63;;;-3.72;54.54
75409;BME280;63979;55.644;37.734;2024-03-06T01:53:51;101349.66;;;-4.04;53.49
75409;BME280;63979;55.644;37.734;2024-03-06T01:58:52;101384.63;;;-3.90;54.54
75409;BME280;63979;55.644;37.734;2024-03-06T02:03:54;101380.88;;;-4.11;54.86
75409;BME280;63979;55.644;37.734;2024-03-06T02:08:55;101387.97;;;-4.00;54.39
75409;BME280;63979;55.644;37.734;2024-03-06T02:13:56;101385.28;;;-4.06;54.62
75409;BME280;63979;55.644;37.734;2024-03-06T02:18:57;101381.50;;;-4.24;56.03
75409;BME280;63979;55.644;37.734;2024-03-06T02:23:58;101384.16;;;-4.21;55.29
75409;BME280;63979;55.644;37.734;2024-03-06T02:28:59;101378.88;;;-4.25;55.45
75409;BME280;63979;55.644;37.734;2024-03-06T02:34:00;101383.19;;;-4.26;55.96
75409;BME280;63979;55.644;37.734;2024-03-06T02:39:05;101382.25;;;-4.31;55.95
75409;BME280;63979;55.644;37.734;2024-03-06T02:44:09;101355.06;;;-4.47;56.58
75409;BME280;63979;55.644;37.734;2024-03-06T02:49:10;101389.84;;;-4.45;56.23
75409;BME280;63979;55.644;37.734;2024-03-06T02:54:10;101401.09;;;-4.47;55.90
75409;BME280;63979;55.644;37.734;2024-03-06T02:59:11;101370.31;;;-4.68;56.46
75409;BME280;63979;55.644;37.734;2024-03-06T03:04:13;101416.69;;;-4.49;55.90
75409;BME280;63979;55.644;37.734;2024-03-06T03:09:14;101421.94;;;-4.47;55.88
75409;BME280;63979;55.644;37.734;2024-03-06T03:14:15;101391.19;;;-4.66;55.46
75409;BME280;63979;55.644;37.734;2024-03-06T03:19:16;101440.16;;;-4.49;55.79
75409;BME280;63979;55.644;37.734;2024-03-06T03:24:17;101430.34;;;-4.60;55.49
75409;BME280;63979;55.644;37.734;2024-03-06T03:29:20;101444.25;;;-4.60;55.60
75409;BME280;63979;55.644;37.734;2024-03-06T03:34:22;101418.59;;;-4.85;55.10
75409;BME280;63979;55.644;37.734;2024-03-06T03:39:23;101446.63;;;-4.72;55.80
75409;BME280;63979;55.644;37.734;2024-03-06T03:44:25;101442.13;;;-4.81;55.72
75409;BME280;63979;55.644;37.734;2024-03-06T03:49:26;101444.81;;;-4.76;55.50
75409;BME280;63979;55.644;37.734;2024-03-06T03:54:26;101452.66;;;-4.75;54.88
75409;BME280;63979;55.644;37.734;2024-03-06T03:59:27;101444.00;;;-4.74;54.82
75409;BME280;63979;55.644;37.734;2024-03-06T04:04:30;101404.50;;;-4.95;53.81
75409;BME280;63979;55.644;37.734;2024-03-06T04:09:32;101436.19;;;-4.74;54.98
75409;BME280;63979;55.644;37.734;2024-03-06T04:14:36;101439.69;;;-4.72;54.18
75409;BME280;63979;55.644;37.734;2024-03-06T04:19:37;101403.97;;;-4.79;54.10
75409;BME280;63979;55.644;37.734;2024-03-06T04:24:41;101431.44;;;-4.49;53.57
75409;BME280;63979;55.644;37.734;2024-03-06T04:29:43;101419.34;;;-4.46;53.81
75409;BME280;63979;55.644;37.734;2024-03-06T04:34:43;101433.53;;;-4.30;53.36
75409;BME280;63979;55.644;37.734;2024-03-06T04:39:44;101444.09;;;-4.21;53.15
75409;BME280;63979;55.644;37.734;2024-03-06T04:44:46;101444.28;;;-4.12;52.60
75409;BME280;63979;55.644;37.734;2024-03-06T04:49:46;101444.53;;;-3.96;52.30
75409;BME280;63979;55.644;37.734;2024-03-06T04:54:47;101445.13;;;-3.58;51.33
75409;BME280;63979;55.644;37.734;2024-03-06T04:59:49;101424.69;;;-1.57;47.18
75409;BME280;63979;55.644;37.734;2024-03-06T05:04:50;101429.47;;;0.91;41.46
75409;BME280;63979;55.644;37.734;2024-03-06T05:09:51;101425.16;;;3.09;36.32
75409;BME280;63979;55.644;37.734;2024-03-06T05:14:53;101425.09;;;4.82;33.41
75409;BME280;63979;55.644;37.734;2024-03-06T05:19:54;101427.25;;;6.59;30.18
75409;BME280;63979;55.644;37.734;2024-03-06T05:24:55;101433.13;;;7.65;28.47
75409;BME280;63979;55.644;37.734;2024-03-06T05:29:56;101434.75;;;9.02;27.07
75409;BME280;63979;55.644;37.734;2024-03-06T05:34:57;101431.19;;;10.59;24.37
75409;BME280;63979;55.644;37.734;2024-03-06T05:40:00;101435.69;;;11.57;23.32
75409;BME280;63979;55.644;37.734;2024-03-06T05:45:03;101442.88;;;11.95;22.28
75409;BME280;63979;55.644;37.734;2024-03-06T05:50:11;101445.97;;;13.09;21.38
75409;BME280;63979;55.644;37.734;2024-03-06T05:55:12;101451.66;;;13.85;20.62
75409;BME280;63979;55.644;37.734;2024-03-06T06:00:13;101446.97;;;14.52;19.04
75409;BME280;63979;55.644;37.734;2024-03-06T06:05:14;101447.63;;;14.71;19.57
75409;BME280;63979;55.644;37.734;2024-03-06T06:10:16;101445.91;;;15.71;18.09
75409;BME280;63979;55.644;37.734;2024-03-06T06:15:35;101447.66;;;16.40;18.00
75409;BME280;63979;55.644;37.734;2024-03-06T06:20:36;101446.53;;;17.48;16.10
75409;BME280;63979;55.644;37.734;2024-03-06T06:25:37;101451.91;;;17.86;16.43
75409;BME280;63979;55.644;37.734;2024-03-06T06:30:38;101447.81;;;18.17;15.76
75409;BME280;63979;55.644;37.734;2024-03-06T06:35:39;101455.59;;;14.73;18.08
75409;BME280;63979;55.644;37.734;2024-03-06T06:40:39;101453.22;;;10.22;22.46
75409;BME280;63979;55.644;37.734;2024-03-06T06:45:43;101451.84;;;8.95;23.67
75409;BME280;63979;55.644;37.734;2024-03-06T06:50:44;101451.09;;;8.40;24.57
75409;BME280;63979;55.644;37.734;2024-03-06T06:55:48;101452.72;;;7.31;26.26
75409;BME280;63979;55.644;37.734;2024-03-06T07:00:50;101430.41;;;6.41;26.64
75409;BME280;63979;55.644;37.734;2024-03-06T07:05:51;101463.19;;;6.38;27.56
75409;BME280;63979;55.644;37.734;2024-03-06T07:10:52;101455.31;;;6.35;27.64
75409;BME280;63979;55.644;37.734;2024-03-06T07:15:55;101451.00;;;5.52;27.55
75409;BME280;63979;55.644;37.734;2024-03-06T07:20:56;101460.94;;;5.43;28.41
75409;BME280;63979;55.644;37.734;2024-03-06T07:25:58;101450.59;;;5.72;28.81
75409;BME280;63979;55.644;37.734;2024-03-06T07:30:59;101466.25;;;5.81;29.08
75409;BME280;63979;55.644;37.734;2024-03-06T07:36:00;101469.56;;;5.51;28.39
75409;BME280;63979;55.644;37.734;2024-03-06T07:41:02;101471.91;;;5.66;28.66
75409;BME280;63979;55.644;37.734;2024-03-06T07:46:02;101467.59;;;5.62;29.60
75409;BME280;63979;55.644;37.734;2024-03-06T07:51:04;101489.19;;;5.82;28.55
75409;BME280;63979;55.644;37.734;2024-03-06T07:56:05;101483.50;;;6.02;27.81
75409;BME280;63979;55.644;37.734;2024-03-06T08:01:06;101487.03;;;5.61;27.66
75409;BME280;63979;55.644;37.734;2024-03-06T08:06:08;101477.78;;;5.80;28.53
75409;BME280;63979;55.644;37.734;2024-03-06T08:11:10;101481.44;;;6.15;27.16
75409;BME280;63979;55.644;37.734;2024-03-06T08:16:11;101488.44;;;6.87;26.45
75409;BME280;63979;55.644;37.734;2024-03-06T08:21:12;101459.91;;;7.57;26.39
75409;BME280;63979;55.644;37.734;2024-03-06T08:26:13;101473.53;;;8.85;23.27
75409;BME280;63979;55.644;37.734;2024-03-06T08:31:14;101451.13;;;9.15;22.77
75409;BME280;63979;55.644;37.734;2024-03-06T08:36:15;101475.09;;;9.63;21.92
75409;BME280;63979;55.644;37.734;2024-03-06T08:41:16;101478.31;;;9.95;23.58
75409;BME280;63979;55.644;37.734;2024-03-06T08:46:17;101470.09;;;9.31;22.15
75409;BME280;63979;55.644;37.734;2024-03-06T08:51:18;101456.19;;;8.98;22.60
75409;BME280;63979;55.644;37.734;2024-03-06T08:56:19;101467.03;;;8.67;23.66
75409;BME280;63979;55.644;37.734;2024-03-06T09:01:19;101471.50;;;8.12;24.25
75409;BME280;63979;55.644;37.734;2024-03-06T09:06:20;101457.69;;;8.01;24.80
75409;BME280;63979;55.644;37.734;2024-03-06T09:11:21;101460.72;;;7.59;24.44
75409;BME280;63979;55.644;37.734;2024-03-06T09:16:23;101464.03;;;7.38;25.07
75409;BME280;63979;55.644;37.734;2024-03-06T09:21:24;101462.50;;;6.98;25.47
75409;BME280;63979;55.644;37.734;2024-03-06T09:26:26;101381.19;;;6.63;25.39
75409;BME280;63979;55.644;37.734;2024-03-06T09:31:27;101424.03;;;7.13;25.71
75409;BME280;63979;55.644;37.734;2024-03-06T09:36:28;101441.41;;;7.54;25.42
75409;BME280;63979;55.644;37.734;2024-03-06T09:41:29;101432.25;;;7.64;24.63
75409;BME280;63979;55.644;37.734;2024-03-06T09:46:29;101439.22;;;7.68;24.21
75409;BME280;63979;55.644;37.734;2024-03-06T09:51:31;101429.41;;;7.41;23.83
75409;BME280;63979;55.644;37.734;2024-03-06T09:56:32;101438.09;;;7.46;23.74
75409;BME280;63979;55.644;37.734;2024-03-06T10:01:37;101419.25;;;7.83;23.41
75409;BME280;63979;55.644;37.734;2024-03-06T10:06:40;101428.19;;;8.61;23.94
75409;BME280;63979;55.644;37.734;2024-03-06T10:11:43;101436.13;;;9.36;22.25
75409;BME280;63979;55.644;37.734;2024-03-06T10:16:56;101426.03;;;8.97;21.79
75409;BME280;63979;55.644;37.734;2024-03-06T10:21:57;101420.81;;;9.43;22.38
75409;BME280;63979;55.644;37.734;2024-03-06T10:27:00;101426.91;;;10.13;21.59
75409;BME280;63979;55.644;37.734;2024-03-06T10:32:01;101384.88;;;10.60;19.68
75409;BME280;63979;55.644;37.734;2024-03-06T10:37:02;101410.22;;;11.30;19.85
75409;BME280;63979;55.644;37.734;2024-03-06T10:42:07;101403.91;;;11.51;19.08
75409;BME280;63979;55.644;37.734;2024-03-06T10:47:09;101412.44;;;12.85;18.80
75409;BME280;63979;55.644;37.734;2024-03-06T10:52:10;101414.72;;;13.59;17.27
75409;BME280;63979;55.644;37.734;2024-03-06T10:57:13;101407.78;;;13.86;17.29
75409;BME280;63979;55.644;37.734;2024-03-06T11:02:15;101406.59;;;14.22;17.21
75409;BME280;63979;55.644;37.734;2024-03-06T11:07:17;101396.44;;;14.58;16.34
75409;BME280;63979;55.644;37.734;2024-03-06T11:12:37;101392.75;;;15.46;15.54
75409;BME280;63979;55.644;37.734;2024-03-06T11:17:39;101391.75;;;17.58;15.09
75409;BME280;63979;55.644;37.734;2024-03-06T11:28:04;101382.03;;;19.21;13.01
75409;BME280;63979;55.644;37.734;2024-03-06T11:33:05;101369.31;;;18.88;13.09
75409;BME280;63979;55.644;37.734;2024-03-06T11:38:09;101346.91;;;18.05;13.87
75409;BME280;63979;55.644;37.734;2024-03-06T11:43:23;101376.25;;;17.24;14.07
75409;BME280;63979;55.644;37.734;2024-03-06T11:48:24;101372.59;;;16.74;14.50
75409;BME280;63979;55.644;37.734;2024-03-06T11:53:26;101365.50;;;16.73;14.67
75409;BME280;63979;55.644;37.734;2024-03-06T12:03:48;101343.69;;;17.01;14.70
75409;BME280;63979;55.644;37.734;2024-03-06T12:08:49;101341.63;;;20.38;12.91
75409;BME280;63979;55.644;37.734;2024-03-06T12:13:51;101332.13;;;22.35;10.93
75409;BME280;63979;55.644;37.734;2024-03-06T12:18:56;101319.75;;;23.63;10.39
75409;BME280;63979;55.644;37.734;2024-03-06T12:24:04;101328.66;;;21.04;11.78
75409;BME280;63979;55.644;37.734;2024-03-06T12:29:10;101328.47;;;20.75;12.07
75409;BME280;63979;55.644;37.734;2024-03-06T12:34:15;101322.91;;;21.68;11.76
75409;BME280;63979;55.644;37.734;2024-03-06T12:39:19;101321.19;;;20.02;12.16
75409;BME280;63979;55.644;37.734;2024-03-06T12:44:23;101314.09;;;18.91;12.57
75409;BME280;63979;55.644;37.734;2024-03-06T12:49:24;101268.47;;;17.94;13.99
75409;BME280;63979;55.644;37.734;2024-03-06T12:54:25;101309.38;;;18.24;13.53
75409;BME280;63979;55.644;37.734;2024-03-06T12:59:26;101317.28;;;17.43;14.70
75409;BME280;63979;55.644;37.734;2024-03-06T13:04:27;101299.00;;;15.67;15.02
75409;BME280;63979;55.644;37.734;2024-03-06T13:09:27;101296.41;;;14.68;14.89
75409;BME280;63979;55.644;37.734;2024-03-06T13:14:28;101301.63;;;14.26;14.50
75409;BME280;63979;55.644;37.734;2024-03-06T13:19:29;101297.09;;;14.27;16.31
75409;BME280;63979;55.644;37.734;2024-03-06T13:24:30;101299.69;;;15.01;14.92
75409;BME280;63979;55.644;37.734;2024-03-06T13:29:31;101269.28;;;13.05;15.52
75409;BME280;63979;55.644;37.734;2024-03-06T13:34:32;101296.31;;;12.52;16.61
75409;BME280;63979;55.644;37.734;2024-03-06T13:39:33;101280.47;;;12.47;16.94
75409;BME280;63979;55.644;37.734;2024-03-06T13:44:35;101293.25;;;11.54;17.64
75409;BME280;63979;55.644;37.734;2024-03-06T13:49:40;101237.03;;;10.02;18.16
75409;BME280;63979;55.644;37.734;2024-03-06T13:54:42;101278.16;;;8.64;19.24
75409;BME280;63979;55.644;37.734;2024-03-06T13:59:43;101281.09;;;7.54;21.73
75409;BME280;63979;55.644;37.734;2024-03-06T14:04:45;101270.22;;;7.07;21.52
75409;BME280;63979;55.644;37.734;2024-03-06T14:09:47;101264.84;;;7.08;22.22
75409;BME280;63979;55.644;37.734;2024-03-06T14:14:49;101272.81;;;8.16;20.41
75409;BME280;63979;55.644;37.734;2024-03-06T14:19:50;101273.09;;;9.26;19.60
75409;BME280;63979;55.644;37.734;2024-03-06T14:24:51;101264.31;;;9.46;19.68
75409;BME280;63979;55.644;37.734;2024-03-06T14:29:52;101262.69;;;8.97;20.46
75409;BME280;63979;55.644;37.734;2024-03-06T14:34:54;101258.84;;;8.09;20.38
75409;BME280;63979;55.644;37.734;2024-03-06T14:39:56;101261.84;;;7.47;21.86
75409;BME280;63979;55.644;37.734;2024-03-06T14:44:57;101243.53;;;6.52;24.08
75409;BME280;63979;55.644;37.734;2024-03-06T14:49:59;101259.16;;;5.64;24.61
75409;BME280;63979;55.644;37.734;2024-03-06T14:55:00;101266.94;;;4.97;24.69
75409;BME280;63979;55.644;37.734;2024-03-06T15:00:01;101263.72;;;4.40;28.12
75409;BME280;63979;55.644;37.734;2024-03-06T15:05:06;101258.44;;;3.95;28.49
75409;BME280;63979;55.644;37.734;2024-03-06T15:10:08;101264.09;;;3.74;27.47
75409;BME280;63979;55.644;37.734;2024-03-06T15:15:09;101248.94;;;3.33;29.46
75409;BME280;63979;55.644;37.734;2024-03-06T15:20:10;101252.72;;;3.17;29.73
75409;BME280;63979;55.644;37.734;2024-03-06T15:25:12;101254.91;;;2.87;27.87
75409;BME280;63979;55.644;37.734;2024-03-06T15:30:13;101250.06;;;2.57;28.51
75409;BME280;63979;55.644;37.734;2024-03-06T15:35:15;101260.03;;;2.30;29.31
75409;BME280;63979;55.644;37.734;2024-03-06T15:40:17;101230.69;;;1.84;31.10
75409;BME280;63979;55.644;37.734;2024-03-06T15:45:20;101258.81;;;1.82;31.70
75409;BME280;63979;55.644;37.734;2024-03-06T15:50:23;101269.41;;;1.70;31.00
75409;BME280;63979;55.644;37.734;2024-03-06T15:55:24;101265.22;;;1.49;32.61
75409;BME280;63979;55.644;37.734;2024-03-06T16:00:24;101281.94;;;1.39;31.65
75409;BME280;63979;55.644;37.734;2024-03-06T16:05:25;101269.81;;;1.22;32.73
75409;BME280;63979;55.644;37.734;2024-03-06T16:10:27;101274.28;;;1.10;32.28
75409;BME280;63979;55.644;37.734;2024-03-06T16:15:28;101281.34;;;0.99;32.86
75409;BME280;63979;55.644;37.734;2024-03-06T16:20:29;101267.44;;;0.81;32.72
75409;BME280;63979;55.644;37.734;2024-03-06T16:25:30;101284.03;;;0.89;33.38
75409;BME280;63979;55.644;37.734;2024-03-06T16:30:33;101256.13;;;0.72;33.42
75409;BME280;63979;55.644;37.734;2024-03-06T16:35:34;101250.91;;;0.61;33.40
75409;BME280;63979;55.644;37.734;2024-03-06T16:40:34;101247.44;;;0.56;29.43
75409;BME280;63979;55.644;37.734;2024-03-06T16:45:36;101205.53;;;0.28;30.37
75409;BME280;63979;55.644;37.734;2024-03-06T16:50:37;101254.47;;;0.49;31.53
75409;BME280;63979;55.644;37.734;2024-03-06T16:55:38;101251.00;;;0.40;33.25
75409;BME280;63979;55.644;37.734;2024-03-06T17:00:39;101258.03;;;0.39;32.00
75409;BME280;63979;55.644;37.734;2024-03-06T17:05:41;101260.66;;;0.31;32.07
75409;BME280;63979;55.644;37.734;2024-03-06T17:10:42;101251.94;;;0.22;32.61
75409;BME280;63979;55.644;37.734;2024-03-06T17:15:43;101218.78;;;0.01;31.66
75409;BME280;63979;55.644;37.734;2024-03-06T17:20:45;101253.69;;;0.20;31.64
75409;BME280;63979;55.644;37.734;2024-03-06T17:25:47;101243.22;;;0.11;32.23
75409;BME280;63979;55.644;37.734;2024-03-06T17:30:48;101246.75;;;0.10;31.59
75409;BME280;63979;55.644;37.734;2024-03-06T17:35:49;101252.88;;;0.10;31.27
75409;BME280;63979;55.644;37.734;2024-03-06T17:40:50;101253.75;;;0.09;31.06
75409;BME280;63979;55.644;37.734;2024-03-06T17:45:51;101247.63;;;-0.02;31.31
75409;BME280;63979;55.644;37.734;2024-03-06T17:50:52;101216.22;;;-0.31;33.39
75409;BME280;63979;55.644;37.734;2024-03-06T17:55:53;101230.19;;;-0.26;32.67
75409;BME280;63979;55.644;37.734;2024-03-06T18:00:54;101245.94;;;-0.40;33.35
75409;BME280;63979;55.644;37.734;2024-03-06T18:05:55;101261.66;;;-0.37;35.72
75409;BME280;63979;55.644;37.734;2024-03-06T18:10:56;101259.06;;;-0.44;38.84
75409;BME280;63979;55.644;37.734;2024-03-06T18:15:58;101247.72;;;-0.55;39.79
75409;BME280;63979;55.644;37.734;2024-03-06T18:21:00;101259.06;;;-0.56;40.29
75409;BME280;63979;55.644;37.734;2024-03-06T18:26:02;101240.69;;;-0.70;42.80
75409;BME280;63979;55.644;37.734;2024-03-06T18:31:03;101227.59;;;-0.87;44.26
75409;BME280;63979;55.644;37.734;2024-03-06T18:36:04;101223.25;;;-0.92;45.89
75409;BME280;63979;55.644;37.734;2024-03-06T18:41:06;101256.44;;;-0.79;46.34
75409;BME280;63979;55.644;37.734;2024-03-06T18:46:07;101247.69;;;-0.89;46.78
75409;BME280;63979;55.644;37.734;2024-03-06T18:51:08;101256.44;;;-0.85;48.28
75409;BME280;63979;55.644;37.734;2024-03-06T18:56:09;101256.44;;;-0.98;48.61
75409;BME280;63979;55.644;37.734;2024-03-06T19:01:11;101253.78;;;-1.07;48.36
75409;BME280;63979;55.644;37.734;2024-03-06T19:06:12;101249.41;;;-1.14;48.02
75409;BME280;63979;55.644;37.734;2024-03-06T19:11:13;101235.41;;;-1.22;49.12
75409;BME280;63979;55.644;37.734;2024-03-06T19:16:14;101219.69;;;-1.37;48.60
75409;BME280;63979;55.644;37.734;2024-03-06T19:21:15;101238.91;;;-1.23;47.30
75409;BME280;63979;55.644;37.734;2024-03-06T19:26:16;101243.28;;;-1.22;48.74
75409;BME280;63979;55.644;37.734;2024-03-06T19:31:17;101244.16;;;-1.26;49.99
75409;BME280;63979;55.644;37.734;2024-03-06T19:36:18;101235.41;;;-1.34;49.65
75409;BME280;63979;55.644;37.734;2024-03-06T19:41:19;101242.38;;;-1.36;49.61
75409;BME280;63979;55.644;37.734;2024-03-06T19:46:21;101236.22;;;-1.40;49.97
75409;BME280;63979;55.644;37.734;2024-03-06T19:51:23;101205.63;;;-1.64;49.72
75409;BME280;63979;55.644;37.734;2024-03-06T19:56:24;101231.84;;;-1.51;50.31
75409;BME280;63979;55.644;37.734;2024-03-06T20:01:25;101216.09;;;-1.64;51.18
75409;BME280;63979;55.644;37.734;2024-03-06T20:06:30;101233.53;;;-1.70;52.22
75409;BME280;63979;55.644;37.734;2024-03-06T20:11:32;101236.06;;;-1.81;52.91
75409;BME280;63979;55.644;37.734;2024-03-06T20:16:33;101237.81;;;-1.84;53.09
75409;BME280;63979;55.644;37.734;2024-03-06T20:21:35;101231.66;;;-1.94;52.64
75409;BME280;63979;55.644;37.734;2024-03-06T20:26:39;101240.28;;;-2.10;52.48
75409;BME280;63979;55.644;37.734;2024-03-06T20:31:42;101221.88;;;-2.29;52.63
75409;BME280;63979;55.644;37.734;2024-03-06T20:36:44;101178.16;;;-2.53;51.12
75409;BME280;63979;55.644;37.734;2024-03-06T20:41:45;101215.75;;;-2.32;50.54
75409;BME280;63979;55.644;37.734;2024-03-06T20:46:46;101215.63;;;-2.49;48.58
75409;BME280;63979;55.644;37.734;2024-03-06T20:51:48;101220.78;;;-2.60;49.11
75409;BME280;63979;55.644;37.734;2024-03-06T20:56:49;101224.22;;;-2.67;45.81
75409;BME280;63979;55.644;37.734;2024-03-06T21:01:50;101205.03;;;-2.72;46.03
75409;BME280;63979;55.644;37.734;2024-03-06T21:06:53;101220.69;;;-2.76;46.84
75409;BME280;63979;55.644;37.734;2024-03-06T21:11:55;101218.84;;;-2.87;44.08
75409;BME280;63979;55.644;37.734;2024-03-06T21:16:56;101211.81;;;-2.92;45.95
75409;BME280;63979;55.644;37.734;2024-03-06T21:22:00;101217.06;;;-2.91;47.98
75409;BME280;63979;55.644;37.734;2024-03-06T21:27:01;101216.09;;;-3.03;49.69
75409;BME280;63979;55.644;37.734;2024-03-06T21:32:02;101208.97;;;-3.18;50.42
75409;BME280;63979;55.644;37.734;2024-03-06T21:37:04;101167.81;;;-3.47;49.53
75409;BME280;63979;55.644;37.734;2024-03-06T21:42:06;101192.31;;;-3.32;49.58
75409;BME280;63979;55.644;37.734;2024-03-06T21:47:06;101192.19;;;-3.46;48.06
75409;BME280;63979;55.644;37.734;2024-03-06T21:52:07;101206.16;;;-3.39;48.99
75409;BME280;63979;55.644;37.734;2024-03-06T21:57:11;101156.97;;;-3.82;50.27
75409;BME280;63979;55.644;37.734;2024-03-06T22:02:12;101183.91;;;-3.83;50.39
75409;BME280;63979;55.644;37.734;2024-03-06T22:07:13;101198.78;;;-3.79;51.45
75409;BME280;63979;55.644;37.734;2024-03-06T22:12:13;101193.44;;;-3.86;53.95
75409;BME280;63979;55.644;37.734;2024-03-06T22:17:14;101194.22;;;-3.95;53.33
75409;BME280;63979;55.644;37.734;2024-03-06T22:22:15;101184.56;;;-4.03;54.01
75409;BME280;63979;55.644;37.734;2024-03-06T22:27:17;101144.97;;;-4.40;54.07
75409;BME280;63979;55.644;37.734;2024-03-06T22:32:18;101193.22;;;-4.04;54.54
75409;BME280;63979;55.644;37.734;2024-03-06T22:37:18;101200.81;;;-4.21;55.58
75409;BME280;63979;55.644;37.734;2024-03-06T22:42:20;101205.16;;;-4.22;55.46
75409;BME280;63979;55.644;37.734;2024-03-06T22:47:21;101165.81;;;-4.42;55.90
75409;BME280;63979;55.644;37.734;2024-03-06T22:52:22;101167.38;;;-4.51;55.26
75409;BME280;63979;55.644;37.734;2024-03-06T22:57:23;101203.31;;;-4.30;56.67
75409;BME280;63979;55.644;37.734;2024-03-06T23:02:23;101205.00;;;-4.34;56.61
75409;BME280;63979;55.644;37.734;2024-03-06T23:07:24;101197.16;;;-4.35;57.32
75409;BME280;63979;55.644;37.734;2024-03-06T23:12:25;101196.19;;;-4.42;57.10
75409;BME280;63979;55.644;37.734;2024-03-06T23:17:26;101189.84;;;-4.61;57.98
75409;BME280;63979;55.644;37.734;2024-03-06T23:22:27;101197.56;;;-4.67;57.62
75409;BME280;63979;55.644;37.734;2024-03-06T23:27:29;101189.63;;;-4.75;54.91
75409;BME280;63979;55.644;37.734;2024-03-06T23:32:30;101167.78;;;-4.84;56.75
75409;BME280;63979;55.644;37.734;2024-03-06T23:37:31;101164.31;;;-4.85;56.34
75409;BME280;63979;55.644;37.734;2024-03-06T23:42:32;101159.09;;;-4.85;57.04
75409;BME280;63979;55.644;37.734;2024-03-06T23:47:34;101132.88;;;-4.97;58.11
75409;BME280;63979;55.644;37.734;2024-03-06T23:52:35;101167.81;;;-4.83;58.69
75409;BME280;63979;55.644;37.734;2024-03-06T23:57:36;101164.25;;;-4.88;58.53
